Flight Track Log - Related Links

Times and Time Zones

All times are in EDT time to prevent confusion due to time zone crossing. See the SBE67 flight status page for this flight to view local times or setup timezone preferences in your user account.

Time Position Orientation Groundspeed Altitude Reporting Facility
EDT Latitude Longitude Course Direction KTS MPH feet Rate Location/Type
Fri 10:15:28 AM 30.6492 -91.1217 North 266 306 3,400  Level Houston Center
Fri 10:16:30 AM 30.7258 -91.1206 North 232 267 5,700 2,032 Climbing Houston Center
Fri 10:17:32 AM 30.7858 -91.1119 North 235 270 7,600 1,839 Climbing Houston Center
Fri 10:18:34 AM 30.8519 -91.1111 North 237 273 9,500 1,839 Climbing Houston Center
Fri 10:19:00 AM 33.4950 -90.9796 North  Level Estimated
Fri 10:19:36 AM 30.9303 -91.1250 351° North 253 291 11,400  Level Houston Center
Fri 10:20:00 AM 33.5302 -90.9774 North  Level FlightAware Approximate
Fri 10:20:38 AM 30.9950 -91.1519 340° North 249 287 13,200  Level Houston Center
Fri 10:21:40 AM 31.0544 -91.1386 11° North 248 285 14,700 1,113 Climbing Houston Center
Fri 10:22:42 AM 31.1417 -91.1342 North 259 298 15,500 387 Climbing Houston Center
Fri 10:23:44 AM 31.2300 -91.1300 North 304 350 15,500  Level Houston Center
Fri 10:24:46 AM 31.3381 -91.1219 North 342 394 15,500  Level Houston Center
Fri 10:25:48 AM 31.4408 -91.1164 North 360 414 15,500  Level Houston Center
Fri 10:26:50 AM 31.5444 -91.1106 North 370 426 15,500  Level Houston Center
Fri 10:27:52 AM 31.6503 -91.1031 North 376 433 15,500  Level Houston Center
Fri 10:28:55 AM 31.7742 -91.0967 North 388 447 15,500 144 Level Houston Center
Fri 10:29:57 AM 31.8689 -91.0911 North 389 448 15,800 532 Climbing Houston Center
Fri 10:30:59 AM 31.9953 -91.0844 North 382 440 16,600 677 Climbing Houston Center
Fri 10:32:01 AM 32.0981 -91.0786 North 373 429 17,200 435 Climbing Houston Center
Fri 10:33:03 AM 32.2008 -91.0728 North 370 426 17,500 145 Climbing Houston Center
Fri 10:34:05 AM 32.3069 -91.0667 North 381 438 17,500  Level Houston Center
Fri 10:35:07 AM 32.4156 -91.0597 North 389 448 17,500  Level Houston Center
Fri 10:36:09 AM 32.5483 -91.0517 North 397 457 17,500  Level Houston Center
Fri 10:37:22 AM 32.6700 -91.0433 North 398 458 17,500  Level Memphis Center
Fri 10:38:22 AM 32.7828 -91.0369 North 398 458 17,500  Level Memphis Center
Fri 10:39:22 AM 32.8956 -91.0303 North 403 464 17,500  Level Memphis Center
Fri 10:40:22 AM 33.0064 -91.0236 North 403 464 17,500  Level Memphis Center
Fri 10:41:22 AM 33.1192 -91.0169 North 403 464 17,500  Level Memphis Center
Fri 10:42:22 AM 33.2319 -91.0081 North 403 464 17,500  Level Memphis Center
Fri 10:43:22 AM 33.3425 -91.0036 North 403 464 17,500  Level Memphis Center
Fri 10:44:22 AM 33.4572 -90.9972 North 403 464 17,500  Level Memphis Center
Fri 10:45:22 AM 33.5639 -90.9906 North 396 456 17,500  Level Memphis Center
Fri 10:46:22 AM 33.6722 -90.9861 North 385 443 17,500  Level Memphis Center
Fri 10:47:22 AM 33.7789 -90.9769 North 385 443 17,500  Level Memphis Center
Fri 10:48:22 AM 33.8978 -90.9703 North 390 449 17,500  Level Memphis Center
Fri 10:49:22 AM 34.0044 -90.9611 North 383 441 17,500  Level Memphis Center
Fri 10:50:22 AM 34.1108 -90.9592 North 378 435 17,500  Level Memphis Center
Fri 10:51:22 AM 34.2172 -90.9500 North 385 443 17,500  Level Memphis Center
Fri 10:52:22 AM 34.3236 -90.9431 North 385 443 17,500  Level Memphis Center
Fri 10:53:22 AM 34.4303 -90.9364 North 385 443 17,500  Level Memphis Center
Fri 10:54:22 AM 34.5303 -90.9319 North 380 437 17,500  Level Memphis Center
Fri 10:55:22 AM 34.6367 -90.9328 360° North 387 445 17,500  Level Memphis Center
Fri 10:56:22 AM 34.7325 -90.9889 334° Northwest 376 433 17,500  Level Memphis Center
Fri 10:57:22 AM 34.8156 -91.0781 319° Northwest 382 440 17,500  Level Memphis Center
Fri 10:58:22 AM 34.8817 -91.1797 308° West 382 440 17,500  Level Memphis Center
Fri 10:59:22 AM 34.9581 -91.2919 310° West 387 445 17,500  Level Memphis Center
Fri 11:00:22 AM 35.0344 -91.3867 315° West 393 452 17,500  Level Memphis Center
Fri 11:01:22 AM 35.1214 -91.4539 328° Northwest 386 444 17,500  Level Memphis Center
Fri 11:02:22 AM 35.2297 -91.4706 353° North 366 421 17,500  Level Memphis Center
Fri 11:03:22 AM 35.3383 -91.4517 North 366 421 17,500  Level Memphis Center
Fri 11:04:22 AM 35.4389 -91.4275 11° North 372 428 17,500  Level Memphis Center
Fri 11:05:22 AM 35.5494 -91.4058 North 384 442 17,500  Level Memphis Center
Fri 11:06:22 AM 35.6561 -91.3817 10° North 378 435 17,500  Level Memphis Center
Fri 11:07:22 AM 35.7564 -91.3597 10° North 377 434 17,500  Level Memphis Center
Fri 11:08:22 AM 35.8628 -91.3356 10° North 377 434 17,500  Level Memphis Center
Fri 11:09:22 AM 35.9717 -91.3111 10° North 377 434 17,500  Level Memphis Center
Fri 11:10:22 AM 36.0739 -91.2789 14° North 382 440 17,500  Level Memphis Center
Fri 11:11:22 AM 36.1722 -91.2208 25° Northeast 382 440 17,500  Level Memphis Center
Fri 11:12:22 AM 36.2769 -91.1783 18° North 382 440 17,500  Level Memphis Center
Fri 11:13:22 AM 36.3853 -91.1561 North 390 449 17,500  Level Memphis Center
Fri 11:14:22 AM 36.4731 -91.1389 North 390 449 17,500  Level Memphis Center
Fri 11:15:22 AM 36.6044 -91.1092 10° North 390 449 17,500  Level Memphis Center
Fri 11:16:22 AM 36.6986 -91.0892 10° North 390 449 17,500  Level Memphis Center
Fri 11:18:18 AM 36.9133 -91.0403 10° North 398 458 17,500  Level Kansas City Center
Fri 11:19:20 AM 37.0222 -91.0128 11° North 397 457 17,500 48 Level Kansas City Center
Fri 11:20:22 AM 37.1414 -90.9731 15° North 399 459 17,600 48 Climbing Kansas City Center
Fri 11:21:24 AM 37.2511 -90.9556 North 398 458 17,600 -48 Level Kansas City Center
Fri 11:22:26 AM 37.3589 -90.9261 12° North 396 456 17,500  Descending Kansas City Center
Fri 11:23:28 AM 37.4711 -90.9022 10° North 401 461 17,600 48 Climbing Kansas City Center
Fri 11:24:30 AM 37.5800 -90.8825 North 398 458 17,600  Level Kansas City Center
Fri 11:25:32 AM 37.6967 -90.8556 10° North 397 457 17,600  Level Kansas City Center
Fri 11:26:35 AM 37.8064 -90.8342 North 398 458 17,600  Level Kansas City Center
Fri 11:27:37 AM 37.9147 -90.8128 North 395 455 17,600 -581 Level Kansas City Center
Fri 11:28:39 AM 38.0425 -90.7808 11° North 392 451 16,400 -2,226 Descending Kansas City Center
Fri 11:29:41 AM 38.1442 -90.7389 18° North 387 445 13,000 -3,097 Descending Kansas City Center
Fri 11:30:43 AM 38.2378 -90.7028 17° North 360 414 10,000 -2,758 Descending Kansas City Center
Fri 11:31:45 AM 38.3178 -90.6803 12° North 303 349 7,300 -1,935 Descending Kansas City Center
Fri 11:32:47 AM 38.3894 -90.6575 14° North 292 336 6,000 -2,129 Descending Kansas City Center
Fri 11:33:49 AM 38.4464 -90.6294 21° North 242 278 2,900 -1,887 Descending Kansas City Center
Fri 11:34:51 AM 38.5106 -90.6008 19° North 216 249 2,100 -484 Descending Kansas City Center
Fri 11:35:53 AM 38.5581 -90.5753 23° Northeast 199 229 1,900 -242 Descending Kansas City Center
Fri 11:36:55 AM 38.6031 -90.5517 22° Northeast 186 214 1,600 -242 Descending Kansas City Center
Fri 11:37:57 AM 38.6458 -90.5483 North 165 190 1,400 -242 Descending Kansas City Center
Fri 11:38:59 AM 38.6706 -90.5781 317° Northwest 153 176 1,100 -339 Descending Kansas City Center
Fri 11:40:01 AM 38.6642 -90.6219 259° West 136 157 700 145 Descending Kansas City Center
Fri 11:41:03 AM 38.6544 -90.6764 257° West 147 169 1,400 629 Climbing Kansas City Center
Fri 11:42:05 AM 38.6119 -90.6517 156° South 204 235 2,000 339 Climbing Kansas City Center
Fri 11:43:07 AM 38.6183 -90.5806 83° East 206 237 2,100 -242 Climbing Kansas City Center
Fri 11:44:09 AM 38.6564 -90.5625 20° North 189 217 1,500 -581 Descending Kansas City Center
Fri 11:45:11 AM 38.6669 -90.6047 288° West 154 177 900 -484 Descending Kansas City Center
Fri 11:46:13 AM 38.6592 -90.6544 259° West 141 162 500 -387 Descending Kansas City Center

Login

Don't have an account? Register now (free) for customized features, flight alerts, and more!